NORTHEAST SUFFOLK  -  Special Weather Statement Special Weather Statement        NORTHERN NASSAU  -  Special Weather Statement Special Weather Statement        NORTHWEST SUFFOLK  -  Special Weather Statement Special Weather Statement        SOUTHEAST SUFFOLK  -  Special Weather Statement Special Weather Statement        SOUTHERN NASSAU  -  Special Weather Statement Special Weather Statement        SOUTHWEST SUFFOLK  -  Special Weather Statement Special Weather Statement      

Active alerts

Northern Nassau
  Details for Northern Nassau Special Weather Statement
Southern Nassau
  Details for Southern Nassau Special Weather Statement
Northwest Suffolk
  Details for Northwest Suffolk Special Weather Statement
Southwest Suffolk
  Details for Southwest Suffolk Special Weather Statement
Northeast Suffolk
  Details for Northeast Suffolk Special Weather Statement
Southeast Suffolk
  Details for Southeast Suffolk Special Weather Statement


WXM80 ListenWXM80 Stop

You find our weather info also at:

UK Metoffice

WeatherCloud

Weather Underground

Northeastern Weather Network

AWEKAS

Citizen Weather Observer Program (CWOP)

HAMweather, WeatherForYou, PWS Weather


Weather Underground History page Text

Daily Summary for November 22, 2017 Units:  Both    English   Metric
« Previous Day
Next Day »
Daily Weekly Monthly Yearly Custom
  High: Low: Average:
Temperature: 53.7 °F /  12.1 °C 38.3 °F /  3.5 °C 48.6 °F /  9.2 °C
Dew Point: 52.6 °F /  11.4 °C 29.0 °F /  -1.7 °C 43.6 °F /  6.4 °C
Humidity: 96 % 68 % 83 %
Wind Speed: 11.3 mph /  18.2 km/h - 3 mph /  4.8 km/h
Wind Gust: 21.9 mph /  35.2 km/h - -
Wind:- - West
Pressure: 30.08 in /  1018.5 hPa 29.65 in /  1003.9 hPa -
Precipitation: 0.11 in /  2.79 mm    
Historical Graphs
 
 
Tabular Data for November 22, 2017
Time Temperature Dew Point Pressure Wind Wind Speed Wind Gust Humidity Rainfall Rate (Hourly)
00:01 53.0 °F /  11.7 °C 45.3 °F /  7.4 °C 30.04 in /  1017.2 hPa SW 6.4 mph /  10.3 km/h 9.0 mph /  14.5 km/h 75 % 0.00 in /  0 mm
00:06 53.0 °F /  11.7 °C 45.6 °F /  7.6 °C 30.04 in /  1017.2 hPa SSW 5.0 mph /  8 km/h 12.0 mph /  19.3 km/h 76 % 0.00 in /  0 mm
00:11 53.1 °F /  11.7 °C 45.7 °F /  7.6 °C 30.04 in /  1017.2 hPa SSW 3.0 mph /  4.8 km/h 7.0 mph /  11.3 km/h 76 % 0.00 in /  0 mm
00:17 53.2 °F /  11.8 °C 45.8 °F /  7.7 °C 30.04 in /  1017.2 hPa WSW 3.9 mph /  6.3 km/h 4.0 mph /  6.4 km/h 76 % 0.00 in /  0 mm
00:22 53.1 °F /  11.7 °C 45.7 °F /  7.6 °C 30.03 in /  1016.8 hPa SW 4.2 mph /  6.8 km/h 6.9 mph /  11.1 km/h 76 % 0.00 in /  0 mm
00:27 53.2 °F /  11.8 °C 45.8 °F /  7.7 °C 29.80 in /  1009 hPa SW 0.5 mph /  0.8 km/h 2.3 mph /  3.7 km/h 76 % 0.00 in /  0 mm
00:41 53.2 °F /  11.8 °C 46.2 °F /  7.9 °C 30.03 in /  1016.8 hPa SW 1.8 mph /  2.9 km/h 3.5 mph /  5.6 km/h 77 % 0.00 in /  0 mm
00:46 53.2 °F /  11.8 °C 46.2 °F /  7.9 °C 30.02 in /  1016.5 hPa South 0.8 mph /  1.3 km/h 3.0 mph /  4.8 km/h 77 % 0.00 in /  0 mm
00:56 53.2 °F /  11.8 °C 46.2 °F /  7.9 °C 30.02 in /  1016.5 hPa SW 2.7 mph /  4.3 km/h 4.6 mph /  7.4 km/h 77 % 0.00 in /  0 mm
01:06 53.2 °F /  11.8 °C 46.2 °F /  7.9 °C 30.02 in /  1016.5 hPa SSW 3.2 mph /  5.1 km/h 4.6 mph /  7.4 km/h 77 % 0.00 in /  0 mm
01:11 53.3 °F /  11.8 °C 46.3 °F /  7.9 °C 30.02 in /  1016.5 hPa SSW 3.0 mph /  4.8 km/h 5.0 mph /  8 km/h 77 % 0.00 in /  0 mm
01:13 53.3 °F /  11.8 °C 46.3 °F /  7.9 °C 30.02 in /  1016.5 hPa SSW 2.4 mph /  3.9 km/h 5.8 mph /  9.3 km/h 77 % 0.00 in /  0 mm
01:18 53.3 °F /  11.8 °C 46.6 °F /  8.1 °C 29.78 in /  1008.4 hPa SSW 4.3 mph /  6.9 km/h 5.8 mph /  9.3 km/h 78 % 0.00 in /  0 mm
01:23 53.3 °F /  11.8 °C 46.6 °F /  8.1 °C 30.02 in /  1016.5 hPa SW 1.2 mph /  1.9 km/h 3.5 mph /  5.6 km/h 78 % 0.00 in /  0 mm
01:29 53.3 °F /  11.8 °C 46.6 °F /  8.1 °C 30.02 in /  1016.5 hPa SW 2.8 mph /  4.5 km/h 4.6 mph /  7.4 km/h 78 % 0.00 in /  0 mm
01:34 53.3 °F /  11.8 °C 46.6 °F /  8.1 °C 30.02 in /  1016.5 hPa SW 1.0 mph /  1.6 km/h 6.9 mph /  11.1 km/h 78 % 0.00 in /  0 mm
01:39 53.3 °F /  11.8 °C 46.6 °F /  8.1 °C 30.01 in /  1016.1 hPa SW 1.2 mph /  1.9 km/h 3.5 mph /  5.6 km/h 78 % 0.00 in /  0 mm
01:44 53.3 °F /  11.8 °C 46.6 °F /  8.1 °C 30.01 in /  1016.1 hPa South 5.0 mph /  8 km/h 6.9 mph /  11.1 km/h 78 % 0.00 in /  0 mm
01:49 53.3 °F /  11.8 °C 46.6 °F /  8.1 °C 30.01 in /  1016.1 hPa SSW 2.3 mph /  3.7 km/h 3.5 mph /  5.6 km/h 78 % 0.00 in /  0 mm
01:59 53.2 °F /  11.8 °C 46.9 °F /  8.3 °C 30.01 in /  1016.1 hPa WSW 1.2 mph /  1.9 km/h 2.3 mph /  3.7 km/h 79 % 0.00 in /  0 mm
02:09 53.2 °F /  11.8 °C 46.9 °F /  8.3 °C 30.01 in /  1016.1 hPa WSW 0.4 mph /  0.6 km/h 2.0 mph /  3.2 km/h 79 % 0.00 in /  0 mm
02:14 53.1 °F /  11.7 °C 46.8 °F /  8.2 °C 30.01 in /  1016.1 hPa WSW 0.7 mph /  1.1 km/h 3.5 mph /  5.6 km/h 79 % 0.00 in /  0 mm
02:19 53.1 °F /  11.7 °C 46.8 °F /  8.2 °C 30.01 in /  1016.1 hPa WSW 0.5 mph /  0.8 km/h   79 % 0.00 in /  0 mm
02:24 53.0 °F /  11.7 °C 46.7 °F /  8.2 °C 30.01 in /  1016.1 hPa WSW 0.2 mph /  0.3 km/h 1.2 mph /  1.9 km/h 79 % 0.00 in /  0 mm
02:29 53.0 °F /  11.7 °C 46.7 °F /  8.2 °C 30.01 in /  1016.1 hPa Calm     79 % 0.00 in /  0 mm
02:33 52.9 °F /  11.6 °C 46.6 °F /  8.1 °C 30.01 in /  1016.1 hPa Calm     79 % 0.00 in /  0 mm
02:48 52.7 °F /  11.5 °C 46.7 °F /  8.2 °C 30.00 in /  1015.8 hPa Calm     80 % 0.00 in /  0 mm
02:58 52.6 °F /  11.4 °C 46.9 °F /  8.3 °C 30.00 in /  1015.8 hPa Calm     81 % 0.00 in /  0 mm
03:03 52.6 °F /  11.4 °C 47.3 °F /  8.5 °C 30.00 in /  1015.8 hPa Calm     82 % 0.00 in /  0 mm
03:13 52.5 °F /  11.4 °C 47.5 °F /  8.6 °C 30.00 in /  1015.8 hPa Calm     83 % 0.00 in /  0 mm
03:29 52.3 °F /  11.3 °C 47.9 °F /  8.8 °C 30.00 in /  1015.8 hPa Calm     85 % 0.00 in /  0 mm
03:34 52.3 °F /  11.3 °C 47.9 °F /  8.8 °C 29.99 in /  1015.5 hPa Calm     85 % 0.00 in /  0 mm
03:39 52.2 °F /  11.2 °C 48.1 °F /  8.9 °C 29.99 in /  1015.5 hPa Calm     86 % 0.00 in /  0 mm
03:49 52.0 °F /  11.1 °C 48.3 °F /  9.1 °C 29.99 in /  1015.5 hPa Calm     87 % 0.00 in /  0 mm
03:54 51.9 °F /  11.1 °C 48.5 °F /  9.2 °C 29.98 in /  1015.1 hPa Calm     88 % 0.00 in /  0 mm
03:59 51.7 °F /  10.9 °C 48.3 °F /  9.1 °C 29.98 in /  1015.1 hPa Calm     88 % 0.00 in /  0 mm
04:04 51.6 °F /  10.9 °C 48.2 °F /  9 °C 29.98 in /  1015.1 hPa Calm     88 % 0.00 in /  0 mm
04:09 51.5 °F /  10.8 °C 48.1 °F /  8.9 °C 29.98 in /  1015.1 hPa Calm     88 % 0.00 in /  0 mm
04:14 51.4 °F /  10.8 °C 48.0 °F /  8.9 °C 29.98 in /  1015.1 hPa Calm     88 % 0.00 in /  0 mm
04:19 51.2 °F /  10.7 °C 48.1 °F /  8.9 °C 29.97 in /  1014.8 hPa Calm     89 % 0.00 in /  0 mm
04:24 51.1 °F /  10.6 °C 48.0 °F /  8.9 °C 29.97 in /  1014.8 hPa Calm     89 % 0.00 in /  0 mm
04:29 51.0 °F /  10.6 °C 47.9 °F /  8.8 °C 29.97 in /  1014.8 hPa Calm     89 % 0.00 in /  0 mm
04:34 50.8 °F /  10.4 °C 47.7 °F /  8.7 °C 29.97 in /  1014.8 hPa Calm     89 % 0.00 in /  0 mm
04:39 50.8 °F /  10.4 °C 47.7 °F /  8.7 °C 29.97 in /  1014.8 hPa Calm     89 % 0.00 in /  0 mm
04:49 50.7 °F /  10.4 °C 47.9 °F /  8.8 °C 29.97 in /  1014.8 hPa Calm     90 % 0.00 in /  0 mm
04:59 50.6 °F /  10.3 °C 47.8 °F /  8.8 °C 29.96 in /  1014.4 hPa Calm     90 % 0.00 in /  0 mm
05:04 50.6 °F /  10.3 °C 47.8 °F /  8.8 °C 29.96 in /  1014.4 hPa Calm     90 % 0.00 in /  0 mm
05:15 50.6 °F /  10.3 °C 48.1 °F /  8.9 °C 29.95 in /  1014.1 hPa Calm     91 % 0.00 in /  0 mm
05:20 50.5 °F /  10.3 °C 48.0 °F /  8.9 °C 29.95 in /  1014.1 hPa Calm     91 % 0.00 in /  0 mm
05:25 50.5 °F /  10.3 °C 48.0 °F /  8.9 °C 29.94 in /  1013.8 hPa Calm     91 % 0.00 in /  0 mm
05:30 50.5 °F /  10.3 °C 48.0 °F /  8.9 °C 29.94 in /  1013.8 hPa Calm     91 % 0.00 in /  0 mm
05:35 50.5 °F /  10.3 °C 48.0 °F /  8.9 °C 29.70 in /  1005.6 hPa Calm     91 % 0.00 in /  0 mm
05:36 50.5 °F /  10.3 °C 48.0 °F /  8.9 °C 29.94 in /  1013.8 hPa Calm     91 % 0.00 in /  0 mm
05:41 50.5 °F /  10.3 °C 48.0 °F /  8.9 °C 29.93 in /  1013.4 hPa Calm     91 % 0.00 in /  0 mm
05:51 50.4 °F /  10.2 °C 47.9 °F /  8.8 °C 29.93 in /  1013.4 hPa Calm     91 % 0.00 in /  0 mm
05:56 50.5 °F /  10.3 °C 48.0 °F /  8.9 °C 29.93 in /  1013.4 hPa Calm     91 % 0.00 in /  0 mm
06:06 50.5 °F /  10.3 °C 48.0 °F /  8.9 °C 29.93 in /  1013.4 hPa Calm     91 % 0.00 in /  0 mm
06:11 50.5 °F /  10.3 °C 48.0 °F /  8.9 °C 29.93 in /  1013.4 hPa Calm     91 % 0.00 in /  0 mm
06:16 50.5 °F /  10.3 °C 48.0 °F /  8.9 °C 29.93 in /  1013.4 hPa Calm     91 % 0.00 in /  0 mm
06:21 50.5 °F /  10.3 °C 48.0 °F /  8.9 °C 29.93 in /  1013.4 hPa Calm     91 % 0.01 in /  0.25 mm
06:26 50.7 °F /  10.4 °C 48.5 °F /  9.2 °C 29.94 in /  1013.8 hPa Calm     92 % 0.01 in /  0.25 mm
06:31 50.9 °F /  10.5 °C 48.9 °F /  9.4 °C 29.94 in /  1013.8 hPa Calm     93 % 0.01 in /  0.25 mm
06:36 51.0 °F /  10.6 °C 49.3 °F /  9.6 °C 29.70 in /  1005.6 hPa Calm     94 % 0.02 in /  0.51 mm
06:42 51.1 °F /  10.6 °C 49.4 °F /  9.7 °C 29.94 in /  1013.8 hPa Calm     94 % 0.02 in /  0.51 mm
06:46 51.2 °F /  10.7 °C 49.5 °F /  9.7 °C 29.69 in /  1005.3 hPa Calm   1.2 mph /  1.9 km/h 94 % 0.02 in /  0.51 mm
06:57 51.5 °F /  10.8 °C 50.1 °F /  10.1 °C 29.93 in /  1013.4 hPa WSW 0.6 mph /  1 km/h 2.3 mph /  3.7 km/h 95 % 0.03 in /  0.76 mm
07:02 51.7 °F /  10.9 °C 50.3 °F /  10.2 °C 29.93 in /  1013.4 hPa Calm     95 % 0.03 in /  0.76 mm
07:07 51.9 °F /  11.1 °C 50.5 °F /  10.3 °C 29.94 in /  1013.8 hPa WSW 0.5 mph /  0.8 km/h 2.3 mph /  3.7 km/h 95 % 0.04 in /  1.02 mm
07:12 52.1 °F /  11.2 °C 50.7 °F /  10.4 °C 29.70 in /  1005.6 hPa Calm   1.2 mph /  1.9 km/h 95 % 0.04 in /  1.02 mm
07:17 52.4 °F /  11.3 °C 51.3 °F /  10.7 °C 29.93 in /  1013.4 hPa Calm     96 % 0.04 in /  1.02 mm
07:22 52.5 °F /  11.4 °C 51.4 °F /  10.8 °C 29.93 in /  1013.4 hPa Calm     96 % 0.03 in /  0.76 mm
07:27 52.7 °F /  11.5 °C 51.6 °F /  10.9 °C 29.93 in /  1013.4 hPa Calm     96 % 0.03 in /  0.76 mm
07:32 52.7 °F /  11.5 °C 51.6 °F /  10.9 °C 29.92 in /  1013.1 hPa Calm     96 % 0.03 in /  0.76 mm
07:37 52.9 °F /  11.6 °C 51.8 °F /  11 °C 29.69 in /  1005.3 hPa Calm     96 % 0.02 in /  0.51 mm
07:52 53.1 °F /  11.7 °C 52.0 °F /  11.1 °C 29.91 in /  1012.8 hPa Calm     96 % 0.01 in /  0.25 mm
07:57 53.1 °F /  11.7 °C 52.0 °F /  11.1 °C 29.91 in /  1012.8 hPa Calm     96 % 0.01 in /  0.25 mm
08:02 53.1 °F /  11.7 °C 52.0 °F /  11.1 °C 29.91 in /  1012.8 hPa Calm     96 % 0.01 in /  0.25 mm
08:07 53.2 °F /  11.8 °C 52.1 °F /  11.2 °C 29.91 in /  1012.8 hPa Calm     96 % 0.00 in /  0 mm
08:12 53.2 °F /  11.8 °C 52.1 °F /  11.2 °C 29.68 in /  1005 hPa Calm     96 % 0.00 in /  0 mm
08:22 53.2 °F /  11.8 °C 51.8 °F /  11 °C 29.91 in /  1012.8 hPa Calm     95 % 0.01 in /  0.25 mm
08:35 53.2 °F /  11.8 °C 51.8 °F /  11 °C 29.91 in /  1012.8 hPa Calm     95 % 0.01 in /  0.25 mm
08:40 53.2 °F /  11.8 °C 51.8 °F /  11 °C 29.91 in /  1012.8 hPa Calm     95 % 0.01 in /  0.25 mm
08:45 53.3 °F /  11.8 °C 51.9 °F /  11.1 °C 29.91 in /  1012.8 hPa Calm     95 % 0.01 in /  0.25 mm
08:50 53.3 °F /  11.8 °C 51.9 °F /  11.1 °C 29.91 in /  1012.8 hPa Calm     95 % 0.01 in /  0.25 mm
09:10 53.7 °F /  12.1 °C 52.6 °F /  11.4 °C 29.92 in /  1013.1 hPa WNW 1.9 mph /  3.1 km/h 3.5 mph /  5.6 km/h 96 % 0.01 in /  0.25 mm
09:15 53.7 °F /  12.1 °C 52.6 °F /  11.4 °C 29.92 in /  1013.1 hPa WSW 3.1 mph /  5 km/h 4.6 mph /  7.4 km/h 96 % 0.01 in /  0.25 mm
09:20 53.7 °F /  12.1 °C 52.6 °F /  11.4 °C 29.92 in /  1013.1 hPa West 0.6 mph /  1 km/h 3.5 mph /  5.6 km/h 96 % 0.00 in /  0 mm
09:30 53.7 °F /  12.1 °C 52.6 °F /  11.4 °C 29.91 in /  1012.8 hPa Calm     96 % 0.00 in /  0 mm
09:35 53.7 °F /  12.1 °C 52.6 °F /  11.4 °C 29.91 in /  1012.8 hPa West 0.6 mph /  1 km/h 2.0 mph /  3.2 km/h 96 % 0.00 in /  0 mm
09:40 53.7 °F /  12.1 °C 52.6 °F /  11.4 °C 29.91 in /  1012.8 hPa Calm   1.2 mph /  1.9 km/h 96 % 0.00 in /  0 mm
09:46 53.7 °F /  12.1 °C 52.6 °F /  11.4 °C 29.91 in /  1012.8 hPa Calm   3.5 mph /  5.6 km/h 96 % 0.00 in /  0 mm
09:51 53.7 °F /  12.1 °C 52.6 °F /  11.4 °C 29.90 in /  1012.4 hPa Calm   2.0 mph /  3.2 km/h 96 % 0.00 in /  0 mm
09:55 53.6 °F /  12 °C 52.5 °F /  11.4 °C 29.90 in /  1012.4 hPa NW 0.5 mph /  0.8 km/h 2.3 mph /  3.7 km/h 96 % 0.00 in /  0 mm
10:00 53.6 °F /  12 °C 52.5 °F /  11.4 °C 29.67 in /  1004.6 hPa WNW 1.3 mph /  2.1 km/h 5.0 mph /  8 km/h 96 % 0.00 in /  0 mm
10:05 53.5 °F /  11.9 °C 52.4 °F /  11.3 °C 29.91 in /  1012.8 hPa WNW 0.8 mph /  1.3 km/h 3.5 mph /  5.6 km/h 96 % 0.00 in /  0 mm
10:10 53.4 °F /  11.9 °C 52.3 °F /  11.3 °C 29.91 in /  1012.8 hPa WNW 2.9 mph /  4.7 km/h 4.6 mph /  7.4 km/h 96 % 0.00 in /  0 mm
10:15 53.3 °F /  11.8 °C 52.2 °F /  11.2 °C 29.91 in /  1012.8 hPa NW 1.0 mph /  1.6 km/h 3.5 mph /  5.6 km/h 96 % 0.00 in /  0 mm
10:20 53.2 °F /  11.8 °C 51.8 °F /  11 °C 29.91 in /  1012.8 hPa WNW 2.0 mph /  3.2 km/h 4.0 mph /  6.4 km/h 95 % 0.00 in /  0 mm
10:25 53.1 °F /  11.7 °C 51.7 °F /  10.9 °C 29.91 in /  1012.8 hPa Calm   1.0 mph /  1.6 km/h 95 % 0.00 in /  0 mm
10:35 52.9 °F /  11.6 °C 51.8 °F /  11 °C 29.91 in /  1012.8 hPa WSW 1.2 mph /  1.9 km/h 3.5 mph /  5.6 km/h 96 % 0.00 in /  0 mm
10:40 52.9 °F /  11.6 °C 51.8 °F /  11 °C 29.91 in /  1012.8 hPa WSW 2.0 mph /  3.2 km/h 3.5 mph /  5.6 km/h 96 % 0.00 in /  0 mm
10:45 52.8 °F /  11.6 °C 51.4 °F /  10.8 °C 29.90 in /  1012.4 hPa WNW 2.4 mph /  3.9 km/h 5.8 mph /  9.3 km/h 95 % 0.00 in /  0 mm
11:00 52.4 °F /  11.3 °C 51.0 °F /  10.6 °C 29.90 in /  1012.4 hPa NW 0.1 mph /  0.2 km/h 2.3 mph /  3.7 km/h 95 % 0.00 in /  0 mm
11:05 52.3 °F /  11.3 °C 50.9 °F /  10.5 °C 29.90 in /  1012.4 hPa WNW 1.6 mph /  2.6 km/h 6.0 mph /  9.7 km/h 95 % 0.00 in /  0 mm
11:10 52.2 °F /  11.2 °C 50.8 °F /  10.4 °C 29.89 in /  1012.1 hPa NW 1.2 mph /  1.9 km/h 3.5 mph /  5.6 km/h 95 % 0.00 in /  0 mm
11:15 52.1 °F /  11.2 °C 50.7 °F /  10.4 °C 29.89 in /  1012.1 hPa NW 0.1 mph /  0.2 km/h 1.2 mph /  1.9 km/h 95 % 0.00 in /  0 mm
11:20 51.9 °F /  11.1 °C 50.5 °F /  10.3 °C 29.88 in /  1011.7 hPa NNE 1.0 mph /  1.6 km/h 3.5 mph /  5.6 km/h 95 % 0.01 in /  0.25 mm
11:25 51.9 °F /  11.1 °C 50.5 °F /  10.3 °C 29.88 in /  1011.7 hPa NNE 2.4 mph /  3.9 km/h 3.0 mph /  4.8 km/h 95 % 0.01 in /  0.25 mm
11:35 51.8 °F /  11 °C 50.1 °F /  10.1 °C 29.88 in /  1011.7 hPa Calm     94 % 0.01 in /  0.25 mm
11:40 51.8 °F /  11 °C 50.4 °F /  10.2 °C 29.88 in /  1011.7 hPa NE 1.1 mph /  1.8 km/h 3.0 mph /  4.8 km/h 95 % 0.01 in /  0.25 mm
11:45 51.8 °F /  11 °C 50.4 °F /  10.2 °C 29.88 in /  1011.7 hPa North 0.7 mph /  1.1 km/h 1.2 mph /  1.9 km/h 95 % 0.01 in /  0.25 mm
11:51 51.8 °F /  11 °C 50.4 °F /  10.2 °C 29.88 in /  1011.7 hPa NW 1.0 mph /  1.6 km/h 3.0 mph /  4.8 km/h 95 % 0.00 in /  0 mm
12:01 51.9 °F /  11.1 °C 50.2 °F /  10.1 °C 29.89 in /  1012.1 hPa WNW 2.5 mph /  4 km/h 4.6 mph /  7.4 km/h 94 % 0.01 in /  0.25 mm
12:11 51.9 °F /  11.1 °C 50.2 °F /  10.1 °C 29.89 in /  1012.1 hPa WNW 0.1 mph /  0.2 km/h 1.2 mph /  1.9 km/h 94 % 0.01 in /  0.25 mm
12:16 51.8 °F /  11 °C 50.1 °F /  10.1 °C 29.89 in /  1012.1 hPa West 0.2 mph /  0.3 km/h 2.3 mph /  3.7 km/h 94 % 0.01 in /  0.25 mm
12:21 51.8 °F /  11 °C 50.1 °F /  10.1 °C 29.65 in /  1003.9 hPa WNW 0.7 mph /  1.1 km/h 3.5 mph /  5.6 km/h 94 % 0.00 in /  0 mm
12:26 51.8 °F /  11 °C 49.8 °F /  9.9 °C 29.65 in /  1003.9 hPa NW 3.0 mph /  4.8 km/h 5.0 mph /  8 km/h 93 % 0.00 in /  0 mm
12:31 51.8 °F /  11 °C 49.8 °F /  9.9 °C 29.88 in /  1011.7 hPa WNW 0.3 mph /  0.5 km/h 3.5 mph /  5.6 km/h 93 % 0.00 in /  0 mm
12:41 51.8 °F /  11 °C 49.8 °F /  9.9 °C 29.87 in /  1011.4 hPa NW 3.8 mph /  6.1 km/h 5.8 mph /  9.3 km/h 93 % 0.00 in /  0 mm
12:46 51.8 °F /  11 °C 49.8 °F /  9.9 °C 29.87 in /  1011.4 hPa West 3.1 mph /  5 km/h 4.6 mph /  7.4 km/h 93 % 0.00 in /  0 mm
12:51 51.7 °F /  10.9 °C 49.5 °F /  9.7 °C 29.88 in /  1011.7 hPa WNW 2.3 mph /  3.7 km/h 6.9 mph /  11.1 km/h 92 % 0.00 in /  0 mm
13:11 51.3 °F /  10.7 °C 48.8 °F /  9.3 °C 29.88 in /  1011.7 hPa NW 3.2 mph /  5.1 km/h 7.0 mph /  11.3 km/h 91 % 0.01 in /  0.25 mm
13:16 51.2 °F /  10.7 °C 48.7 °F /  9.3 °C 29.88 in /  1011.7 hPa WNW 3.0 mph /  4.8 km/h 3.5 mph /  5.6 km/h 91 % 0.01 in /  0.25 mm
13:21 51.2 °F /  10.7 °C 48.7 °F /  9.3 °C 29.88 in /  1011.7 hPa WNW 3.8 mph /  6.1 km/h 6.9 mph /  11.1 km/h 91 % 0.01 in /  0.25 mm
13:26 51.2 °F /  10.7 °C 48.7 °F /  9.3 °C 29.88 in /  1011.7 hPa WNW 2.3 mph /  3.7 km/h 4.0 mph /  6.4 km/h 91 % 0.01 in /  0.25 mm
13:32 51.3 °F /  10.7 °C 48.8 °F /  9.3 °C 29.88 in /  1011.7 hPa West 3.5 mph /  5.6 km/h 4.6 mph /  7.4 km/h 91 % 0.01 in /  0.25 mm
13:37 51.3 °F /  10.7 °C 48.5 °F /  9.2 °C 29.88 in /  1011.7 hPa WNW 3.8 mph /  6.1 km/h 5.8 mph /  9.3 km/h 90 % 0.01 in /  0.25 mm
13:42 51.4 °F /  10.8 °C 48.6 °F /  9.2 °C 29.65 in /  1003.9 hPa West 5.6 mph /  9 km/h 9.2 mph /  14.8 km/h 90 % 0.01 in /  0.25 mm
13:47 51.6 °F /  10.9 °C 48.8 °F /  9.3 °C 29.88 in /  1011.7 hPa WNW 2.0 mph /  3.2 km/h 8.1 mph /  13 km/h 90 % 0.01 in /  0.25 mm
13:52 51.9 °F /  11.1 °C 49.1 °F /  9.5 °C 29.65 in /  1003.9 hPa WNW 4.0 mph /  6.4 km/h 10.0 mph /  16.1 km/h 90 % 0.02 in /  0.51 mm
13:57 51.9 °F /  11.1 °C 48.2 °F /  9 °C 29.88 in /  1011.7 hPa NW 4.8 mph /  7.7 km/h 9.2 mph /  14.8 km/h 87 % 0.01 in /  0.25 mm
14:02 51.8 °F /  11 °C 47.7 °F /  8.7 °C 29.88 in /  1011.7 hPa North 3.3 mph /  5.3 km/h 8.0 mph /  12.9 km/h 86 % 0.01 in /  0.25 mm
14:07 51.7 °F /  10.9 °C 47.6 °F /  8.7 °C 29.88 in /  1011.7 hPa NNW 4.9 mph /  7.9 km/h 9.0 mph /  14.5 km/h 86 % 0.01 in /  0.25 mm
14:22 50.9 °F /  10.5 °C 46.9 °F /  8.3 °C 29.89 in /  1012.1 hPa North 7.5 mph /  12.1 km/h 12.7 mph /  20.4 km/h 86 % 0.02 in /  0.51 mm
14:27 50.2 °F /  10.1 °C 45.6 °F /  7.6 °C 29.89 in /  1012.1 hPa NNE 8.7 mph /  14 km/h 13.8 mph /  22.2 km/h 84 % 0.02 in /  0.51 mm
14:33 49.6 °F /  9.8 °C 44.3 °F /  6.8 °C 29.89 in /  1012.1 hPa North 9.6 mph /  15.4 km/h 12.7 mph /  20.4 km/h 82 % 0.02 in /  0.51 mm
14:38 49.0 °F /  9.4 °C 44.1 °F /  6.7 °C 29.90 in /  1012.4 hPa WNW 8.1 mph /  13 km/h 13.8 mph /  22.2 km/h 83 % 0.02 in /  0.51 mm
14:43 48.8 °F /  9.3 °C 44.2 °F /  6.8 °C 29.90 in /  1012.4 hPa NNW 4.5 mph /  7.2 km/h 11.5 mph /  18.5 km/h 84 % 0.02 in /  0.51 mm
14:48 48.6 °F /  9.2 °C 43.4 °F /  6.3 °C 29.90 in /  1012.4 hPa NNW 4.4 mph /  7.1 km/h 21.9 mph /  35.2 km/h 82 % 0.01 in /  0.25 mm
14:53 48.5 °F /  9.2 °C 43.3 °F /  6.3 °C 29.90 in /  1012.4 hPa NNW 7.1 mph /  11.4 km/h 13.8 mph /  22.2 km/h 82 % 0.01 in /  0.25 mm
15:03 48.2 °F /  9 °C 42.3 °F /  5.7 °C 29.91 in /  1012.8 hPa NNW 5.7 mph /  9.2 km/h 13.8 mph /  22.2 km/h 80 % 0.01 in /  0.25 mm
15:08 48.0 °F /  8.9 °C 41.8 °F /  5.4 °C 29.92 in /  1013.1 hPa NNW 10.6 mph /  17.1 km/h 19.6 mph /  31.5 km/h 79 % 0.02 in /  0.51 mm
15:13 47.7 °F /  8.7 °C 41.2 °F /  5.1 °C 29.92 in /  1013.1 hPa NNW 7.6 mph /  12.2 km/h 15.0 mph /  24.1 km/h 78 % 0.02 in /  0.51 mm
15:18 47.6 °F /  8.7 °C 41.7 °F /  5.4 °C 29.92 in /  1013.1 hPa NE 6.6 mph /  10.6 km/h 11.0 mph /  17.7 km/h 80 % 0.01 in /  0.25 mm
15:23 47.4 °F /  8.6 °C 40.9 °F /  4.9 °C 29.92 in /  1013.1 hPa NW 10.8 mph /  17.4 km/h 19.6 mph /  31.5 km/h 78 % 0.01 in /  0.25 mm
15:28 47.2 °F /  8.4 °C 41.3 °F /  5.2 °C 29.69 in /  1005.3 hPa WNW 5.2 mph /  8.4 km/h 12.7 mph /  20.4 km/h 80 % 0.01 in /  0.25 mm
15:43 46.8 °F /  8.2 °C 40.3 °F /  4.6 °C 29.93 in /  1013.4 hPa NNW 6.6 mph /  10.6 km/h 12.7 mph /  20.4 km/h 78 % 0.01 in /  0.25 mm
15:53 46.6 °F /  8.1 °C 39.8 °F /  4.3 °C 29.94 in /  1013.8 hPa NNE 6.8 mph /  10.9 km/h 11.5 mph /  18.5 km/h 77 % 0.01 in /  0.25 mm
16:13 46.1 °F /  7.8 °C 39.3 °F /  4.1 °C 29.95 in /  1014.1 hPa NNW 7.6 mph /  12.2 km/h 13.8 mph /  22.2 km/h 77 % 0.00 in /  0 mm
16:18 46.0 °F /  7.8 °C 39.2 °F /  4 °C 29.95 in /  1014.1 hPa NNE 6.9 mph /  11.1 km/h 12.7 mph /  20.4 km/h 77 % 0.00 in /  0 mm
16:23 45.8 °F /  7.7 °C 39.3 °F /  4.1 °C 29.95 in /  1014.1 hPa NNW 6.2 mph /  10 km/h 9.2 mph /  14.8 km/h 78 % 0.00 in /  0 mm
16:33 45.6 °F /  7.6 °C 38.8 °F /  3.8 °C 29.95 in /  1014.1 hPa NW 3.7 mph /  6 km/h 8.1 mph /  13 km/h 77 % 0.00 in /  0 mm
16:43 45.3 °F /  7.4 °C 38.8 °F /  3.8 °C 29.72 in /  1006.3 hPa North 6.6 mph /  10.6 km/h 10.4 mph /  16.7 km/h 78 % 0.00 in /  0 mm
16:54 45.2 °F /  7.3 °C 38.7 °F /  3.7 °C 29.96 in /  1014.4 hPa West 3.1 mph /  5 km/h 6.9 mph /  11.1 km/h 78 % 0.00 in /  0 mm
16:59 45.3 °F /  7.4 °C 38.8 °F /  3.8 °C 29.96 in /  1014.4 hPa NNW 3.9 mph /  6.3 km/h 8.1 mph /  13 km/h 78 % 0.00 in /  0 mm
17:04 45.2 °F /  7.3 °C 38.7 °F /  3.7 °C 29.96 in /  1014.4 hPa NNW 5.6 mph /  9 km/h 12.7 mph /  20.4 km/h 78 % 0.00 in /  0 mm
17:09 45.3 °F /  7.4 °C 38.8 °F /  3.8 °C 29.96 in /  1014.4 hPa North 5.9 mph /  9.5 km/h 9.2 mph /  14.8 km/h 78 % 0.00 in /  0 mm
17:14 45.3 °F /  7.4 °C 38.8 °F /  3.8 °C 29.97 in /  1014.8 hPa NW 6.8 mph /  10.9 km/h 15.0 mph /  24.1 km/h 78 % 0.00 in /  0 mm
17:19 45.4 °F /  7.4 °C 38.3 °F /  3.5 °C 29.97 in /  1014.8 hPa WNW 4.0 mph /  6.4 km/h 16.1 mph /  25.9 km/h 76 % 0.00 in /  0 mm
17:24 45.4 °F /  7.4 °C 37.6 °F /  3.1 °C 29.98 in /  1015.1 hPa WNW 9.0 mph /  14.5 km/h 16.1 mph /  25.9 km/h 74 % 0.00 in /  0 mm
17:29 45.4 °F /  7.4 °C 36.5 °F /  2.5 °C 29.98 in /  1015.1 hPa WNW 8.1 mph /  13 km/h 18.4 mph /  29.6 km/h 71 % 0.01 in /  0.25 mm
17:39 45.1 °F /  7.3 °C 36.3 °F /  2.4 °C 29.98 in /  1015.1 hPa NW 8.1 mph /  13 km/h 18.4 mph /  29.6 km/h 71 % 0.01 in /  0.25 mm
17:44 45.0 °F /  7.2 °C 36.5 °F /  2.5 °C 29.98 in /  1015.1 hPa West 4.3 mph /  6.9 km/h 11.5 mph /  18.5 km/h 72 % 0.01 in /  0.25 mm
17:49 44.8 °F /  7.1 °C 35.6 °F /  2 °C 29.99 in /  1015.5 hPa NNW 7.2 mph /  11.6 km/h 13.8 mph /  22.2 km/h 70 % 0.01 in /  0.25 mm
18:04 44.3 °F /  6.8 °C 35.5 °F /  1.9 °C 29.98 in /  1015.1 hPa West 9.4 mph /  15.1 km/h 15.0 mph /  24.1 km/h 71 % 0.01 in /  0.25 mm
18:09 44.2 °F /  6.8 °C 35.7 °F /  2.1 °C 29.98 in /  1015.1 hPa NNW 8.0 mph /  12.9 km/h 18.4 mph /  29.6 km/h 72 % 0.01 in /  0.25 mm
18:14 44.1 °F /  6.7 °C 35.3 °F /  1.8 °C 29.99 in /  1015.5 hPa NW 10.9 mph /  17.5 km/h 15.0 mph /  24.1 km/h 71 % 0.01 in /  0.25 mm
18:19 44.0 °F /  6.7 °C 35.2 °F /  1.8 °C 29.99 in /  1015.5 hPa NW 5.3 mph /  8.5 km/h 19.6 mph /  31.5 km/h 71 % 0.01 in /  0.25 mm
18:24 43.9 °F /  6.6 °C 35.1 °F /  1.7 °C 29.75 in /  1007.3 hPa WNW 6.9 mph /  11.1 km/h 15.0 mph /  24.1 km/h 71 % 0.01 in /  0.25 mm
18:29 43.7 °F /  6.5 °C 34.9 °F /  1.6 °C 30.00 in /  1015.8 hPa WNW 9.4 mph /  15.1 km/h 15.0 mph /  24.1 km/h 71 % 0.00 in /  0 mm
18:39 43.5 °F /  6.4 °C 34.7 °F /  1.5 °C 29.99 in /  1015.5 hPa North 4.5 mph /  7.2 km/h 14.0 mph /  22.5 km/h 71 % 0.00 in /  0 mm
18:44 43.4 °F /  6.3 °C 35.0 °F /  1.7 °C 29.99 in /  1015.5 hPa NW 2.8 mph /  4.5 km/h 6.9 mph /  11.1 km/h 72 % 0.00 in /  0 mm
18:54 43.1 °F /  6.2 °C 34.7 °F /  1.5 °C 30.01 in /  1016.1 hPa NW 4.4 mph /  7.1 km/h 9.2 mph /  14.8 km/h 72 % 0.00 in /  0 mm
18:59 43.1 °F /  6.2 °C 34.3 °F /  1.3 °C 30.01 in /  1016.1 hPa NW 3.4 mph /  5.5 km/h 12.7 mph /  20.4 km/h 71 % 0.00 in /  0 mm
19:04 42.9 °F /  6.1 °C 34.5 °F /  1.4 °C 30.01 in /  1016.1 hPa West 8.6 mph /  13.8 km/h 11.5 mph /  18.5 km/h 72 % 0.00 in /  0 mm
19:25 42.9 °F /  6.1 °C 33.8 °F /  1 °C 30.02 in /  1016.5 hPa WNW 11.3 mph /  18.2 km/h 17.3 mph /  27.8 km/h 70 % 0.00 in /  0 mm
19:30 42.8 °F /  6 °C 33.7 °F /  0.9 °C 30.02 in /  1016.5 hPa NNW 4.2 mph /  6.8 km/h 15.0 mph /  24.1 km/h 70 % 0.00 in /  0 mm
19:35 42.7 °F /  5.9 °C 33.2 °F /  0.7 °C 30.03 in /  1016.8 hPa NNW 8.7 mph /  14 km/h 15.0 mph /  24.1 km/h 69 % 0.00 in /  0 mm
19:40 42.6 °F /  5.9 °C 33.5 °F /  0.8 °C 30.03 in /  1016.8 hPa North 6.3 mph /  10.1 km/h 16.1 mph /  25.9 km/h 70 % 0.00 in /  0 mm
19:45 42.5 °F /  5.8 °C 33.0 °F /  0.6 °C 30.03 in /  1016.8 hPa WNW 6.8 mph /  10.9 km/h 12.7 mph /  20.4 km/h 69 % 0.00 in /  0 mm
19:50 42.4 °F /  5.8 °C 33.3 °F /  0.7 °C 30.03 in /  1016.8 hPa WSW 5.9 mph /  9.5 km/h 12.7 mph /  20.4 km/h 70 % 0.00 in /  0 mm
19:57 42.0 °F /  5.6 °C 32.2 °F /  0.1 °C 30.02 in /  1016.5 hPa NW 5.4 mph /  8.7 km/h 10.4 mph /  16.7 km/h 68 % 0.00 in /  0 mm
20:02 41.9 °F /  5.5 °C 32.5 °F /  0.3 °C 30.03 in /  1016.8 hPa North 7.8 mph /  12.6 km/h 13.8 mph /  22.2 km/h 69 % 0.00 in /  0 mm
20:07 41.8 °F /  5.4 °C 32.4 °F /  0.2 °C 30.03 in /  1016.8 hPa NNW 8.1 mph /  13 km/h 11.5 mph /  18.5 km/h 69 % 0.00 in /  0 mm
20:12 41.7 °F /  5.4 °C 31.9 °F /  -0.1 °C 30.03 in /  1016.8 hPa NNW 6.1 mph /  9.8 km/h 15.0 mph /  24.1 km/h 68 % 0.00 in /  0 mm
20:27 41.4 °F /  5.2 °C 32.3 °F /  0.2 °C 30.03 in /  1016.8 hPa NNE 5.7 mph /  9.2 km/h 10.4 mph /  16.7 km/h 70 % 0.00 in /  0 mm
20:33 41.3 °F /  5.2 °C 31.9 °F /  -0.1 °C 30.04 in /  1017.2 hPa NW 7.9 mph /  12.7 km/h 9.2 mph /  14.8 km/h 69 % 0.00 in /  0 mm
20:38 41.2 °F /  5.1 °C 31.4 °F /  -0.3 °C 30.04 in /  1017.2 hPa NW 6.2 mph /  10 km/h 6.9 mph /  11.1 km/h 68 % 0.00 in /  0 mm
20:43 41.1 °F /  5.1 °C 31.3 °F /  -0.4 °C 30.04 in /  1017.2 hPa NW 4.1 mph /  6.6 km/h 12.7 mph /  20.4 km/h 68 % 0.00 in /  0 mm
20:48 41.0 °F /  5 °C 31.6 °F /  -0.2 °C 30.05 in /  1017.5 hPa NNE 5.8 mph /  9.3 km/h 11.5 mph /  18.5 km/h 69 % 0.00 in /  0 mm
20:53 40.9 °F /  4.9 °C 31.5 °F /  -0.3 °C 30.05 in /  1017.5 hPa WNW 4.1 mph /  6.6 km/h 9.2 mph /  14.8 km/h 69 % 0.00 in /  0 mm
20:58 40.8 °F /  4.9 °C 31.4 °F /  -0.3 °C 30.05 in /  1017.5 hPa West 4.7 mph /  7.6 km/h 8.1 mph /  13 km/h 69 % 0.00 in /  0 mm
21:03 40.7 °F /  4.8 °C 31.3 °F /  -0.4 °C 30.05 in /  1017.5 hPa NW 4.1 mph /  6.6 km/h 11.5 mph /  18.5 km/h 69 % 0.00 in /  0 mm
21:08 40.6 °F /  4.8 °C 31.2 °F /  -0.4 °C 30.05 in /  1017.5 hPa WNW 5.5 mph /  8.9 km/h 11.5 mph /  18.5 km/h 69 % 0.00 in /  0 mm
21:13 40.5 °F /  4.7 °C 31.5 °F /  -0.3 °C 30.05 in /  1017.5 hPa NW 2.6 mph /  4.2 km/h 6.9 mph /  11.1 km/h 70 % 0.00 in /  0 mm
21:33 40.2 °F /  4.6 °C 30.8 °F /  -0.7 °C 29.82 in /  1009.7 hPa NW 5.6 mph /  9 km/h 13.8 mph /  22.2 km/h 69 % 0.00 in /  0 mm
21:38 40.1 °F /  4.5 °C 30.7 °F /  -0.7 °C 30.06 in /  1017.8 hPa NNW 4.5 mph /  7.2 km/h 8.0 mph /  12.9 km/h 69 % 0.00 in /  0 mm
21:48 40.0 °F /  4.4 °C 31.0 °F /  -0.6 °C 30.06 in /  1017.8 hPa NNW 3.4 mph /  5.5 km/h 6.0 mph /  9.7 km/h 70 % 0.00 in /  0 mm
21:53 39.9 °F /  4.4 °C 30.9 °F /  -0.6 °C 30.06 in /  1017.8 hPa West 6.1 mph /  9.8 km/h 9.2 mph /  14.8 km/h 70 % 0.00 in /  0 mm
21:58 39.8 °F /  4.3 °C 30.5 °F /  -0.8 °C 30.06 in /  1017.8 hPa NNW 3.7 mph /  6 km/h 10.4 mph /  16.7 km/h 69 % 0.00 in /  0 mm
22:09 39.7 °F /  4.3 °C 31.1 °F /  -0.5 °C 30.06 in /  1017.8 hPa NW 3.4 mph /  5.5 km/h 8.1 mph /  13 km/h 71 % 0.00 in /  0 mm
22:15 39.6 °F /  4.2 °C 30.6 °F /  -0.8 °C 30.06 in /  1017.8 hPa WSW 5.0 mph /  8 km/h 13.8 mph /  22.2 km/h 70 % 0.00 in /  0 mm
22:21 39.5 °F /  4.2 °C 30.5 °F /  -0.8 °C 30.06 in /  1017.8 hPa WNW 7.5 mph /  12.1 km/h 11.5 mph /  18.5 km/h 70 % 0.00 in /  0 mm
22:24 39.4 °F /  4.1 °C 30.8 °F /  -0.7 °C 30.06 in /  1017.8 hPa NW 3.3 mph /  5.3 km/h 11.5 mph /  18.5 km/h 71 % 0.00 in /  0 mm
22:25 39.4 °F /  4.1 °C 30.8 °F /  -0.7 °C 29.83 in /  1010 hPa NNW 2.3 mph /  3.7 km/h 6.9 mph /  11.1 km/h 71 % 0.00 in /  0 mm
22:26 39.4 °F /  4.1 °C 30.8 °F /  -0.7 °C 30.06 in /  1017.8 hPa WNW 3.0 mph /  4.8 km/h 8.0 mph /  12.9 km/h 71 % 0.00 in /  0 mm
22:31 39.3 °F /  4.1 °C 30.7 °F /  -0.7 °C 29.83 in /  1010 hPa WNW 3.7 mph /  6 km/h 10.4 mph /  16.7 km/h 71 % 0.00 in /  0 mm
22:36 39.2 °F /  4 °C 30.2 °F /  -1 °C 30.06 in /  1017.8 hPa West 5.7 mph /  9.2 km/h 9.2 mph /  14.8 km/h 70 % 0.00 in /  0 mm
22:41 39.1 °F /  3.9 °C 29.8 °F /  -1.2 °C 30.07 in /  1018.2 hPa East 5.1 mph /  8.2 km/h 8.1 mph /  13 km/h 69 % 0.00 in /  0 mm
22:46 39.0 °F /  3.9 °C 30.0 °F /  -1.1 °C 30.07 in /  1018.2 hPa NW 3.3 mph /  5.3 km/h 7.0 mph /  11.3 km/h 70 % 0.00 in /  0 mm
22:51 39.0 °F /  3.9 °C 29.7 °F /  -1.3 °C 29.84 in /  1010.4 hPa West 3.1 mph /  5 km/h 12.7 mph /  20.4 km/h 69 % 0.00 in /  0 mm
22:56 38.9 °F /  3.8 °C 29.9 °F /  -1.2 °C 30.07 in /  1018.2 hPa NW 6.0 mph /  9.7 km/h 11.5 mph /  18.5 km/h 70 % 0.00 in /  0 mm
23:02 38.8 °F /  3.8 °C 29.8 °F /  -1.2 °C 30.08 in /  1018.5 hPa WNW 4.7 mph /  7.6 km/h 7.0 mph /  11.3 km/h 70 % 0.00 in /  0 mm
23:12 38.8 °F /  3.8 °C 29.8 °F /  -1.2 °C 30.08 in /  1018.5 hPa NW 2.9 mph /  4.7 km/h 9.2 mph /  14.8 km/h 70 % 0.00 in /  0 mm
23:27 38.6 °F /  3.7 °C 29.3 °F /  -1.5 °C 30.08 in /  1018.5 hPa NNW 1.3 mph /  2.1 km/h 4.0 mph /  6.4 km/h 69 % 0.00 in /  0 mm
23:32 38.5 °F /  3.6 °C 29.6 °F /  -1.3 °C 30.08 in /  1018.5 hPa North 4.2 mph /  6.8 km/h 12.0 mph /  19.3 km/h 70 % 0.00 in /  0 mm
23:37 38.4 °F /  3.6 °C 29.5 °F /  -1.4 °C 30.08 in /  1018.5 hPa West 2.1 mph /  3.4 km/h 4.0 mph /  6.4 km/h 70 % 0.00 in /  0 mm
23:42 38.4 °F /  3.6 °C 29.1 °F /  -1.6 °C 30.08 in /  1018.5 hPa NW 2.5 mph /  4 km/h 8.1 mph /  13 km/h 69 % 0.00 in /  0 mm
23:47 38.3 °F /  3.5 °C 29.0 °F /  -1.7 °C 30.08 in /  1018.5 hPa WNW 5.1 mph /  8.2 km/h 10.4 mph /  16.7 km/h 69 % 0.00 in /  0 mm
Crab Meadow Weather
Compliments of Weather Underground - 2.75 mb

Script developed by  Jim McMurry - jmcmurry@mwt.net Adapted for the template by  Wim van der Kuil - Leuven-Template.eu

Barometer: A barometer is an instrument used to measure atmospheric pressure. A barometer is commonly used for weather prediction, as high air pressure in a region indicates fair weather while low pressure indicates that storms are more likely. When used in combination with wind observations, reasonably accurate short-term forecasts can be made.